Time;durP1;ratioP1;P1;durP2;ratioP2;P2;SDS_P1;SDS_P2;PMS_P1;PMS_P2;Temp;Humidity;BMP_temperature;BMP_pressure;BME280_temperature;BME280_humidity;BME280_pressure;Samples;Min_cycle;Max_cycle;Signal;HPM_P1;HPM_P2
2022/03/11 00:02:05;;;;;;;18.45;10.07;;;1.60;64.50;;;;;;5050453;28;20497;-79
2022/03/11 00:04:31;;;;;;;17.90;9.32;;;1.60;64.40;;;;;;5051458;28;20024;-79
2022/03/11 00:06:57;;;;;;;16.58;9.23;;;1.60;64.30;;;;;;5051150;28;20017;-80
2022/03/11 00:09:23;;;;;;;20.38;10.38;;;1.60;63.60;;;;;;5050837;28;20025;-79
2022/03/11 00:11:49;;;;;;;15.85;9.13;;;1.50;63.60;;;;;;5050773;28;20053;-81
2022/03/11 00:14:15;;;;;;;15.75;8.60;;;1.50;63.60;;;;;;5051817;28;20021;-80
2022/03/11 00:16:41;;;;;;;15.35;8.38;;;1.40;63.50;;;;;;5052798;28;20017;-78
2022/03/11 00:19:07;;;;;;;15.02;8.35;;;1.40;63.30;;;;;;5052036;28;20052;-80
2022/03/11 00:21:33;;;;;;;17.58;8.68;;;1.40;63.20;;;;;;5051552;28;20017;-79
2022/03/11 00:23:59;;;;;;;16.65;8.50;;;1.30;62.80;;;;;;5052420;28;20036;-80
2022/03/11 00:26:25;;;;;;;16.67;7.85;;;1.30;62.60;;;;;;5051292;28;20033;-81
2022/03/11 00:28:51;;;;;;;16.70;7.90;;;1.20;62.20;;;;;;5049311;28;20007;-81
2022/03/11 00:31:17;;;;;;;15.43;7.55;;;1.20;62.00;;;;;;5051624;28;20064;-79
2022/03/11 00:33:43;;;;;;;11.82;7.07;;;1.20;62.10;;;;;;5049402;28;20517;-80
2022/03/11 00:36:09;;;;;;;12.57;7.22;;;1.10;61.40;;;;;;5046867;28;20029;-80
2022/03/11 00:38:35;;;;;;;15.18;7.15;;;1.10;61.30;;;;;;5049088;28;20040;-81
2022/03/11 00:41:01;;;;;;;12.27;6.65;;;1.00;61.20;;;;;;5046997;28;20049;-79
2022/03/11 00:43:28;;;;;;;11.25;5.75;;;1.10;61.00;;;;;;5045996;28;20032;-81
2022/03/11 00:45:54;;;;;;;11.57;5.90;;;1.00;60.80;;;;;;5047256;28;20025;-81
2022/03/11 00:48:21;;;;;;;11.63;6.20;;;1.00;60.40;;;;;;5047486;28;20040;-80
2022/03/11 00:50:48;;;;;;;10.65;5.93;;;1.00;59.60;;;;;;5056567;28;20051;-78
2022/03/11 00:53:14;;;;;;;9.30;5.22;;;1.00;59.10;;;;;;5054012;28;20044;-81
2022/03/11 00:55:40;;;;;;;9.40;4.95;;;0.90;59.20;;;;;;5051721;28;20037;-80
2022/03/11 00:58:06;;;;;;;12.13;5.53;;;0.90;59.10;;;;;;5049294;28;20072;-79
2022/03/11 01:00:32;;;;;;;11.35;5.32;;;0.90;58.80;;;;;;5050841;28;20026;-80
2022/03/11 01:02:58;;;;;;;11.98;5.38;;;0.90;58.00;;;;;;5046404;28;20029;-80
2022/03/11 01:05:24;;;;;;;10.65;5.10;;;0.80;57.90;;;;;;5045584;28;20048;-81
2022/03/11 01:07:51;;;;;;;9.00;5.07;;;0.80;57.80;;;;;;5047865;28;20028;-81
2022/03/11 01:10:18;;;;;;;9.55;4.80;;;0.80;57.50;;;;;;5046482;28;20030;-82
2022/03/11 01:12:44;;;;;;;11.68;5.32;;;0.80;57.30;;;;;;5047403;28;20033;-80
2022/03/11 01:15:10;;;;;;;8.40;4.55;;;0.70;56.70;;;;;;5047426;28;20021;-79
2022/03/11 01:17:37;;;;;;;8.40;4.30;;;0.70;56.70;;;;;;5047101;28;20021;-80
2022/03/11 01:20:05;;;;;;;10.23;4.43;;;0.70;56.70;;;;;;5047702;28;20299;-81
2022/03/11 01:22:31;;;;;;;12.55;5.35;;;0.60;56.30;;;;;;5046910;28;20060;-81
2022/03/11 01:24:57;;;;;;;8.40;4.18;;;0.60;56.90;;;;;;5046502;28;20026;-80
2022/03/11 01:27:23;;;;;;;8.05;4.22;;;0.50;56.20;;;;;;5050247;28;20188;-80
2022/03/11 01:29:49;;;;;;;6.38;3.90;;;0.60;56.00;;;;;;5049371;28;20039;-78
2022/03/11 01:32:15;;;;;;;10.60;4.00;;;0.50;55.60;;;;;;5047487;28;20032;-81
2022/03/11 01:34:41;;;;;;;6.68;4.13;;;0.50;55.70;;;;;;5044030;28;20033;-80
2022/03/11 01:37:07;;;;;;;6.47;3.47;;;0.50;55.70;;;;;;5056656;28;20025;-79
2022/03/11 01:39:33;;;;;;;6.75;3.65;;;0.40;55.70;;;;;;5048029;28;20044;-80
2022/03/11 01:41:58;;;;;;;9.43;4.22;;;0.40;55.70;;;;;;5048103;28;20021;-80
2022/03/11 01:44:26;;;;;;;8.57;4.32;;;0.40;55.80;;;;;;5048512;28;20028;-80
2022/03/11 01:46:52;;;;;;;10.13;3.78;;;0.40;55.80;;;;;;5052844;28;20028;-80
2022/03/11 01:49:17;;;;;;;9.45;3.67;;;0.40;54.90;;;;;;5068589;23;20048;-80
2022/03/11 01:51:44;;;;;;;9.75;4.00;;;0.40;55.00;;;;;;5051180;28;20073;-77
2022/03/11 01:54:11;;;;;;;6.18;3.70;;;0.30;55.10;;;;;;5061926;28;20080;-80
2022/03/11 01:56:37;;;;;;;10.88;3.88;;;0.30;55.10;;;;;;5059339;28;20032;-81
2022/03/11 01:59:04;;;;;;;5.60;3.42;;;0.30;54.80;;;;;;5058042;28;20017;-81
2022/03/11 02:01:30;;;;;;;8.13;3.60;;;0.30;54.90;;;;;;5059617;28;20029;-81
2022/03/11 02:03:59;;;;;;;8.10;3.35;;;0.20;54.80;;;;;;5059737;28;20389;-81
2022/03/11 02:06:26;;;;;;;6.80;3.78;;;0.20;54.80;;;;;;5057179;28;20026;-78
2022/03/11 02:08:52;;;;;;;5.82;3.33;;;0.20;54.80;;;;;;5059124;28;20025;-79
2022/03/11 02:11:19;;;;;;;10.00;4.10;;;0.20;54.90;;;;;;5063408;28;20021;-79
2022/03/11 02:13:47;;;;;;;8.38;3.88;;;0.20;54.80;;;;;;5059409;28;20021;-79
2022/03/11 02:16:14;;;;;;;6.32;3.88;;;0.20;54.80;;;;;;5058617;28;20021;-79
2022/03/11 02:18:40;;;;;;;6.68;3.50;;;0.20;54.70;;;;;;5058893;28;20025;-78
2022/03/11 02:21:07;;;;;;;7.47;4.22;;;0.10;54.60;;;;;;5060131;28;20496;-79
2022/03/11 02:23:51;;;;;;;6.95;3.50;;;0.10;54.60;;;;;;5059446;28;20025;-79
2022/03/11 02:26:18;;;;;;;8.77;4.10;;;0.00;54.80;;;;;;5069892;28;20010;-78
2022/03/11 02:28:45;;;;;;;8.88;3.88;;;0.00;54.80;;;;;;5072756;28;20025;-81
2022/03/11 02:31:11;;;;;;;5.28;3.20;;;0.00;55.00;;;;;;5074764;28;20035;-78
2022/03/11 02:33:37;;;;;;;6.25;3.80;;;-0.10;55.00;;;;;;5069341;28;20049;-78
2022/03/11 02:36:04;;;;;;;8.82;3.63;;;-0.10;55.30;;;;;;5066025;28;20057;-79
2022/03/11 02:38:30;;;;;;;7.28;3.88;;;-0.20;55.40;;;;;;5064252;28;20025;-79
2022/03/11 02:40:56;;;;;;;5.55;3.25;;;-0.20;55.60;;;;;;5066240;28;20207;-79
2022/03/11 02:43:23;;;;;;;8.80;3.78;;;-0.20;55.70;;;;;;5068175;28;20041;-80
2022/03/11 02:45:49;;;;;;;9.73;3.65;;;-0.20;55.70;;;;;;5067814;28;20051;-78
2022/03/11 02:48:15;;;;;;;9.50;3.97;;;-0.20;55.80;;;;;;5068340;28;20028;-78
2022/03/11 02:50:41;;;;;;;8.32;3.80;;;-0.20;55.80;;;;;;5069286;28;20020;-78
2022/03/11 02:53:07;;;;;;;5.63;3.28;;;-0.30;55.90;;;;;;5069944;28;20342;-78
2022/03/11 02:55:32;;;;;;;6.55;3.15;;;-0.30;56.10;;;;;;5070711;28;20248;-79
2022/03/11 02:57:58;;;;;;;7.53;4.13;;;-0.30;56.30;;;;;;5066776;28;20080;-80
2022/03/11 03:00:24;;;;;;;7.10;3.83;;;-0.30;56.40;;;;;;5063709;28;20035;-79
2022/03/11 03:02:49;;;;;;;7.85;4.30;;;-0.30;56.40;;;;;;5063513;28;20036;-79
2022/03/11 03:05:15;;;;;;;9.55;4.22;;;-0.40;56.40;;;;;;5073657;28;20048;-78
2022/03/11 03:07:42;;;;;;;7.30;3.63;;;-0.40;56.50;;;;;;5071222;28;20037;-76
2022/03/11 03:10:08;;;;;;;7.63;3.72;;;-0.40;56.60;;;;;;5044976;28;20025;-80
2022/03/11 03:12:37;;;;;;;9.55;4.95;;;-0.40;56.80;;;;;;5042786;28;20505;-80
2022/03/11 03:15:03;;;;;;;7.10;4.45;;;-0.40;56.70;;;;;;5047026;28;20109;-79
2022/03/11 03:17:28;;;;;;;12.10;4.53;;;-0.40;56.60;;;;;;5043989;28;20022;-80
2022/03/11 03:19:54;;;;;;;8.07;4.15;;;-0.40;56.80;;;;;;5045123;28;20025;-80
2022/03/11 03:22:20;;;;;;;9.48;4.32;;;-0.50;57.10;;;;;;5046530;28;20026;-79
2022/03/11 03:24:47;;;;;;;8.15;3.90;;;-0.60;57.30;;;;;;5050891;28;20030;-79
2022/03/11 03:27:13;;;;;;;7.72;4.15;;;-0.60;57.60;;;;;;5055214;28;20043;-80
2022/03/11 03:29:38;;;;;;;7.03;4.05;;;-0.60;57.80;;;;;;5070723;28;20250;-79
2022/03/11 03:32:05;;;;;;;9.93;4.30;;;-0.60;58.00;;;;;;5054088;28;20041;-80
2022/03/11 03:34:33;;;;;;;13.68;4.75;;;-0.70;58.00;;;;;;5045866;28;20059;-79
2022/03/11 03:37:00;;;;;;;8.82;3.80;;;-0.70;58.20;;;;;;5051007;28;20142;-81
2022/03/11 03:39:26;;;;;;;7.18;4.30;;;-0.70;58.40;;;;;;5060216;28;20033;-80
2022/03/11 03:41:54;;;;;;;8.15;4.38;;;-0.70;58.60;;;;;;5063583;28;20029;-78
2022/03/11 03:44:20;;;;;;;10.80;4.20;;;-0.80;58.70;;;;;;5059625;28;20037;-80
2022/03/11 03:46:46;;;;;;;7.72;4.55;;;-0.80;58.80;;;;;;5060729;28;20041;-80
2022/03/11 03:49:12;;;;;;;9.25;4.72;;;-0.80;59.00;;;;;;5060150;28;20036;-80
2022/03/11 03:51:40;;;;;;;7.25;4.70;;;-0.80;59.00;;;;;;5059817;28;20370;-80
2022/03/11 03:54:09;;;;;;;8.10;3.85;;;-0.80;59.10;;;;;;5060162;28;20048;-78
2022/03/11 03:56:39;;;;;;;11.13;6.05;;;-0.80;59.40;;;;;;5059994;28;20028;-79
2022/03/11 03:59:06;;;;;;;10.95;4.43;;;-0.90;59.50;;;;;;5058322;28;20447;-80
2022/03/11 04:01:34;;;;;;;9.82;3.90;;;-0.90;59.60;;;;;;5059879;28;20020;-80
2022/03/11 04:04:00;;;;;;;9.75;4.22;;;-0.90;59.90;;;;;;5060363;28;20029;-79
2022/03/11 04:06:28;;;;;;;9.60;4.32;;;-1.00;60.00;;;;;;5060445;28;20032;-80
2022/03/11 04:08:56;;;;;;;12.85;4.07;;;-1.00;60.10;;;;;;5055493;28;20039;-79
2022/03/11 04:11:23;;;;;;;7.93;4.53;;;-1.00;60.20;;;;;;5063093;28;20055;-80
2022/03/11 04:13:52;;;;;;;10.25;4.72;;;-1.00;60.30;;;;;;5060118;28;20066;-80
2022/03/11 04:16:18;;;;;;;9.10;4.40;;;-1.00;60.50;;;;;;5059896;28;20056;-81
2022/03/11 04:18:45;;;;;;;12.88;4.50;;;-1.10;60.60;;;;;;5061288;28;20096;-80
2022/03/11 04:21:11;;;;;;;13.05;4.72;;;-1.10;60.70;;;;;;5059881;28;20021;-79
2022/03/11 04:23:37;;;;;;;7.05;4.07;;;-1.20;60.90;;;;;;5060692;28;20036;-80
2022/03/11 04:26:03;;;;;;;7.85;4.07;;;-1.10;61.20;;;;;;5064164;28;20029;-77
2022/03/11 04:28:29;;;;;;;6.45;3.85;;;-1.20;61.20;;;;;;5075451;28;20039;-79
2022/03/11 04:30:54;;;;;;;9.32;4.40;;;-1.20;61.40;;;;;;5057036;28;20079;-79
2022/03/11 04:33:21;;;;;;;12.13;4.90;;;-1.20;61.40;;;;;;5057271;28;20025;-80
2022/03/11 04:35:47;;;;;;;10.35;4.38;;;-1.10;61.70;;;;;;5069644;28;20029;-78
2022/03/11 04:38:13;;;;;;;9.93;5.07;;;-1.20;61.60;;;;;;5070737;28;20064;-78
2022/03/11 04:40:39;;;;;;;8.60;4.40;;;-1.20;61.80;;;;;;5061700;28;20085;-79
2022/03/11 04:43:05;;;;;;;9.35;5.20;;;-1.20;62.00;;;;;;5072792;28;20025;-79
2022/03/11 04:45:30;;;;;;;9.20;4.80;;;-1.20;62.10;;;;;;5069093;28;20100;-79
2022/03/11 04:47:56;;;;;;;12.95;5.82;;;-1.20;62.20;;;;;;5043039;28;20438;-79
2022/03/11 04:50:22;;;;;;;11.27;5.80;;;-1.20;62.40;;;;;;5062971;28;20536;-79
2022/03/11 04:52:48;;;;;;;8.63;4.13;;;-1.30;62.50;;;;;;5057408;28;20035;-81
2022/03/11 04:55:16;;;;;;;12.57;5.38;;;-1.30;62.70;;;;;;5059037;28;20299;-80
2022/03/11 04:57:42;;;;;;;10.40;4.95;;;-1.30;62.80;;;;;;5058686;28;20044;-81
2022/03/11 05:00:08;;;;;;;7.40;3.92;;;-1.30;63.10;;;;;;5058314;28;20662;-81
2022/03/11 05:02:34;;;;;;;9.23;5.13;;;-1.30;63.20;;;;;;5060357;28;20057;-80
2022/03/11 05:05:09;;;;;;;6.97;4.13;;;-1.30;63.30;;;;;;5061352;28;20469;-81
2022/03/11 05:07:35;;;;;;;9.40;4.70;;;-1.30;63.40;;;;;;5058669;28;20051;-80
2022/03/11 05:10:02;;;;;;;12.20;4.97;;;-1.30;63.60;;;;;;5058147;28;20112;-80
2022/03/11 05:12:27;;;;;;;11.23;4.78;;;-1.30;63.50;;;;;;5059096;28;20055;-79
2022/03/11 05:14:53;;;;;;;11.80;4.93;;;-1.30;63.60;;;;;;5058023;28;20090;-77
2022/03/11 05:17:19;;;;;;;9.15;4.70;;;-1.30;63.60;;;;;;5054684;28;20424;-79
2022/03/11 05:19:45;;;;;;;13.10;5.35;;;-1.40;63.60;;;;;;5058547;28;20088;-78
2022/03/11 05:22:11;;;;;;;8.38;4.60;;;-1.40;63.80;;;;;;5054765;28;20032;-79
2022/03/11 05:24:38;;;;;;;8.05;4.03;;;-1.40;63.90;;;;;;5053935;28;20098;-79
2022/03/11 05:27:05;;;;;;;11.07;4.57;;;-1.40;64.20;;;;;;5057100;28;20096;-78
2022/03/11 05:29:35;;;;;;;13.20;5.40;;;-1.40;64.40;;;;;;5057843;28;20484;-79
2022/03/11 05:32:02;;;;;;;13.48;5.60;;;-1.40;64.30;;;;;;5060016;28;20074;-79
2022/03/11 05:34:27;;;;;;;10.00;4.97;;;-1.40;64.30;;;;;;5073407;28;20025;-81
2022/03/11 05:36:53;;;;;;;9.63;4.72;;;-1.50;64.30;;;;;;5071721;28;20032;-79
2022/03/11 05:39:19;;;;;;;8.70;4.80;;;-1.50;64.50;;;;;;5067053;28;20035;-78
2022/03/11 05:41:46;;;;;;;9.90;5.30;;;-1.50;64.50;;;;;;5061490;28;20037;-79
2022/03/11 05:44:12;;;;;;;10.90;5.45;;;-1.50;64.50;;;;;;5044563;28;20096;-78
2022/03/11 05:46:38;;;;;;;9.82;5.38;;;-1.50;64.60;;;;;;5039267;28;20466;-78
2022/03/11 05:49:04;;;;;;;11.35;5.40;;;-1.50;64.70;;;;;;5038735;28;20029;-78
2022/03/11 05:51:30;;;;;;;10.65;5.40;;;-1.50;65.00;;;;;;5039892;28;20032;-78
2022/03/11 05:53:56;;;;;;;11.38;5.13;;;-1.50;65.10;;;;;;5057172;28;20036;-78
2022/03/11 05:56:22;;;;;;;13.82;6.18;;;-1.50;65.20;;;;;;5057209;28;20021;-78
2022/03/11 05:58:50;;;;;;;12.75;6.00;;;-1.50;65.40;;;;;;5056575;28;20028;-81
2022/03/11 06:01:16;;;;;;;9.52;5.57;;;-1.50;65.40;;;;;;5057549;28;20116;-82
2022/03/11 06:03:42;;;;;;;10.00;5.32;;;-1.50;65.60;;;;;;5059216;28;20032;-81
2022/03/11 06:06:08;;;;;;;12.32;5.72;;;-1.40;65.70;;;;;;5061462;28;20025;-82
2022/03/11 06:08:34;;;;;;;7.65;4.30;;;-1.40;65.70;;;;;;5049523;28;20025;-82
2022/03/11 06:10:59;;;;;;;11.32;5.45;;;-1.40;65.70;;;;;;5078429;28;20029;-82
2022/03/11 06:13:25;;;;;;;8.60;5.03;;;-1.30;65.60;;;;;;5064236;28;20029;-81
2022/03/11 06:15:51;;;;;;;8.40;5.05;;;-1.30;65.50;;;;;;5062402;28;20036;-82
2022/03/11 06:18:18;;;;;;;10.68;5.53;;;-1.20;65.60;;;;;;5063262;28;20040;-81
2022/03/11 06:20:45;;;;;;;13.15;6.28;;;-1.20;65.60;;;;;;5070183;28;20045;-82
2022/03/11 06:23:11;;;;;;;15.43;5.97;;;-1.20;65.30;;;;;;5077591;28;20108;-81
2022/03/11 06:25:36;;;;;;;13.82;6.40;;;-1.20;65.20;;;;;;5077566;28;20025;-81
2022/03/11 06:28:02;;;;;;;13.20;6.43;;;-1.20;65.30;;;;;;5072046;28;20124;-82
2022/03/11 06:30:28;;;;;;;12.00;5.82;;;-1.20;65.40;;;;;;5062727;28;20044;-82
2022/03/11 06:32:54;;;;;;;12.45;5.53;;;-1.20;65.50;;;;;;5061108;28;20288;-82
2022/03/11 06:35:19;;;;;;;10.38;5.60;;;-1.20;65.50;;;;;;5061621;28;20055;-82
2022/03/11 06:37:48;;;;;;;13.68;5.40;;;-1.20;65.50;;;;;;5059014;28;20109;-82
2022/03/11 06:40:14;;;;;;;12.07;5.35;;;-1.10;65.60;;;;;;5071797;28;20081;-81
2022/03/11 06:42:42;;;;;;;11.32;5.22;;;-1.10;65.60;;;;;;5052342;28;20048;-81
2022/03/11 06:45:09;;;;;;;10.50;5.38;;;-1.10;65.60;;;;;;5045948;28;20060;-82
2022/03/11 06:47:36;;;;;;;11.70;5.55;;;-1.00;65.50;;;;;;5061811;28;20010;-82
2022/03/11 06:50:03;;;;;;;9.75;5.15;;;-0.90;65.20;;;;;;5078332;28;20035;-82
2022/03/11 06:52:29;;;;;;;13.05;5.68;;;-0.90;65.20;;;;;;5063163;28;20084;-82
2022/03/11 06:54:54;;;;;;;9.77;5.38;;;-0.90;65.20;;;;;;5063232;28;20033;-83
2022/03/11 06:57:20;;;;;;;10.02;4.95;;;-0.80;65.30;;;;;;5062288;28;20592;-80
2022/03/11 06:59:49;;;;;;;11.82;5.50;;;-0.70;65.40;;;;;;5066964;28;20025;-81
2022/03/11 07:02:16;;;;;;;10.40;5.00;;;-0.60;65.30;;;;;;5060936;28;20025;-80
2022/03/11 07:04:43;;;;;;;14.93;6.95;;;-0.50;65.10;;;;;;5062638;28;20021;-79
2022/03/11 07:07:09;;;;;;;12.43;6.47;;;-0.40;65.00;;;;;;5064284;28;20055;-81
2022/03/11 07:09:35;;;;;;;12.40;6.00;;;-0.30;64.80;;;;;;5068247;28;20041;-81
2022/03/11 07:12:03;;;;;;;13.48;7.03;;;-0.20;64.70;;;;;;5067622;28;20025;-81
2022/03/11 07:14:30;;;;;;;10.98;6.25;;;-0.10;63.70;;;;;;5067550;28;20082;-79
2022/03/11 07:16:57;;;;;;;16.75;6.78;;;-0.10;63.80;;;;;;5066995;28;20025;-81
2022/03/11 07:19:29;;;;;;;15.50;7.30;;;0.00;63.60;;;;;;5064586;28;20057;-79
2022/03/11 07:21:59;;;;;;;14.35;6.28;;;0.00;63.60;;;;;;5063857;28;20040;-80
2022/03/11 07:24:26;;;;;;;13.65;6.72;;;0.00;63.50;;;;;;5065527;28;20025;-81
2022/03/11 07:26:51;;;;;;;20.75;7.75;;;0.00;63.50;;;;;;5066687;28;20048;-79
2022/03/11 07:29:18;;;;;;;13.63;6.18;;;0.10;63.60;;;;;;5067686;28;20071;-80
2022/03/11 07:31:45;;;;;;;12.70;6.78;;;0.20;63.90;;;;;;5084511;28;20088;-82
2022/03/11 07:34:11;;;;;;;11.68;6.35;;;0.30;63.90;;;;;;5073014;28;20054;-80
2022/03/11 07:36:36;;;;;;;13.30;6.75;;;0.50;63.80;;;;;;5071519;28;20021;-81
2022/03/11 07:39:04;;;;;;;11.73;6.10;;;0.60;63.30;;;;;;5063525;28;20028;-81
2022/03/11 07:41:30;;;;;;;17.20;7.13;;;0.70;62.80;;;;;;5068215;28;20028;-81
2022/03/11 07:43:55;;;;;;;16.63;6.57;;;0.80;62.60;;;;;;5069256;28;20036;-80
2022/03/11 07:46:23;;;;;;;15.55;6.25;;;0.90;62.50;;;;;;5068618;28;20051;-80
2022/03/11 07:48:52;;;;;;;11.55;6.72;;;1.10;62.90;;;;;;5080854;22;20112;-83
2022/03/11 07:51:21;;;;;;;14.15;6.22;;;1.40;61.90;;;;;;5072858;28;20075;-81
2022/03/11 07:53:46;;;;;;;15.27;7.35;;;1.60;60.80;;;;;;5067405;28;20032;-82
2022/03/11 07:56:14;;;;;;;15.45;6.82;;;1.70;59.90;;;;;;5065289;28;20029;-81
2022/03/11 07:58:44;;;;;;;13.73;6.97;;;1.70;59.80;;;;;;5062340;28;20186;-79
2022/03/11 08:01:21;;;;;;;20.35;6.47;;;1.80;59.80;;;;;;5065045;28;20031;-80
2022/03/11 08:03:47;;;;;;;13.18;6.60;;;1.90;59.40;;;;;;5063825;28;20130;-80
2022/03/11 08:06:13;;;;;;;14.40;6.40;;;1.90;59.60;;;;;;5063155;28;20049;-80
2022/03/11 08:08:39;;;;;;;12.52;6.30;;;2.00;59.60;;;;;;5063280;28;20017;-80
2022/03/11 08:11:05;;;;;;;18.02;6.78;;;2.10;59.70;;;;;;5061903;28;20086;-80
2022/03/11 08:13:33;;;;;;;15.77;6.85;;;2.30;59.50;;;;;;5062741;28;20029;-80
2022/03/11 08:16:08;;;;;;;18.17;6.88;;;2.50;58.80;;;;;;5066098;28;20044;-83
2022/03/11 08:18:43;;;;;;;16.27;7.55;;;2.70;58.10;;;;;;5050706;28;20123;-79
2022/03/11 08:21:16;;;;;;;11.85;6.55;;;2.80;57.30;;;;;;5061587;28;20029;-79
2022/03/11 08:23:52;;;;;;;10.68;6.18;;;2.90;57.70;;;;;;5058784;28;20028;-81
2022/03/11 08:26:31;;;;;;;15.80;7.32;;;3.10;57.30;;;;;;5061573;28;20074;-82
2022/03/11 08:29:09;;;;;;;11.48;6.40;;;3.40;57.80;;;;;;5073950;28;20075;-82
2022/03/11 08:31:43;;;;;;;16.98;7.13;;;3.80;56.20;;;;;;5074212;28;20029;-85
2022/03/11 08:34:37;;;;;;;13.75;6.32;;;3.80;55.40;;;;;;5074437;28;20012;-87
2022/03/11 08:37:06;;;;;;;13.57;6.25;;;3.90;55.30;;;;;;5074379;28;20024;-87
2022/03/11 08:39:32;;;;;;;16.05;7.28;;;4.00;55.50;;;;;;5074841;28;20094;-87
2022/03/11 08:41:58;;;;;;;12.20;7.00;;;4.10;54.60;;;;;;5063910;28;20021;-82
2022/03/11 08:44:23;;;;;;;13.65;7.30;;;4.20;54.20;;;;;;5060678;28;20021;-81
2022/03/11 08:46:52;;;;;;;13.40;7.65;;;4.30;54.40;;;;;;5058791;28;20032;-83
2022/03/11 08:49:18;;;;;;;13.13;7.53;;;4.40;54.30;;;;;;5058202;28;20369;-82
2022/03/11 08:51:44;;;;;;;10.77;5.93;;;4.70;54.40;;;;;;5059900;28;20041;-85
2022/03/11 08:54:10;;;;;;;11.02;6.05;;;5.10;54.00;;;;;;5061214;28;20028;-81
2022/03/11 08:56:40;;;;;;;14.65;7.10;;;5.40;52.90;;;;;;5063054;28;20218;-83
2022/03/11 08:59:06;;;;;;;13.40;7.15;;;5.70;52.40;;;;;;5059618;28;20040;-82
2022/03/11 09:01:32;;;;;;;16.40;7.70;;;5.70;51.60;;;;;;5059560;28;20021;-82
2022/03/11 09:03:57;;;;;;;15.05;6.55;;;5.60;51.70;;;;;;5060467;28;20029;-82
2022/03/11 09:06:24;;;;;;;16.60;7.25;;;5.90;51.70;;;;;;5060938;28;20037;-83
2022/03/11 09:08:50;;;;;;;15.55;7.38;;;6.10;50.90;;;;;;5061709;28;20021;-84
2022/03/11 09:11:15;;;;;;;14.30;6.00;;;6.20;50.70;;;;;;5066185;28;20484;-85
2022/03/11 09:13:43;;;;;;;8.98;6.10;;;6.40;50.60;;;;;;5057735;28;20025;-83
2022/03/11 09:16:09;;;;;;;11.57;6.47;;;6.70;50.30;;;;;;5058051;28;20024;-83
2022/03/11 09:18:35;;;;;;;12.27;7.22;;;7.10;49.80;;;;;;5058495;28;20365;-82
2022/03/11 09:21:01;;;;;;;10.43;6.32;;;7.20;48.70;;;;;;5059662;28;20021;-83
2022/03/11 09:23:27;;;;;;;12.32;7.38;;;7.20;48.60;;;;;;5060955;28;20021;-81
2022/03/11 09:25:54;;;;;;;11.48;6.43;;;7.30;48.00;;;;;;5059286;28;20060;-83
2022/03/11 09:28:24;;;;;;;11.52;7.13;;;7.50;48.40;;;;;;5064905;28;20029;-81
2022/03/11 09:30:49;;;;;;;12.63;6.20;;;7.70;47.50;;;;;;5061314;28;20092;-81
2022/03/11 09:33:15;;;;;;;10.25;5.97;;;7.60;47.00;;;;;;5062055;28;20036;-80
2022/03/11 09:35:41;;;;;;;9.52;6.63;;;7.50;47.60;;;;;;5059581;28;20017;-82
2022/03/11 09:38:07;;;;;;;10.98;6.35;;;7.60;47.50;;;;;;5059492;28;20021;-82
2022/03/11 09:40:35;;;;;;;10.73;6.70;;;7.70;47.70;;;;;;5058975;28;20025;-83
2022/03/11 09:43:01;;;;;;;16.52;7.53;;;7.90;47.30;;;;;;5064764;28;20049;-81
2022/03/11 09:45:28;;;;;;;9.77;6.70;;;8.20;46.30;;;;;;5064089;28;20071;-84
2022/03/11 09:47:54;;;;;;;19.02;7.63;;;8.00;46.00;;;;;;5063785;28;20481;-83
2022/03/11 09:50:20;;;;;;;11.02;6.78;;;8.00;46.60;;;;;;5063599;28;20032;-82
2022/03/11 09:52:48;;;;;;;15.85;7.50;;;8.00;45.80;;;;;;5066309;28;20392;-82
2022/03/11 09:55:14;;;;;;;12.52;6.65;;;8.10;46.40;;;;;;5060980;28;20028;-80
2022/03/11 09:57:41;;;;;;;11.27;6.75;;;8.10;45.90;;;;;;5061680;28;20021;-79
2022/03/11 10:00:09;;;;;;;8.70;6.00;;;8.40;46.40;;;;;;5069961;28;20028;-80
2022/03/11 10:02:35;;;;;;;9.77;6.75;;;8.80;46.00;;;;;;5067937;28;20027;-82
2022/03/11 10:05:01;;;;;;;9.90;6.53;;;8.90;44.50;;;;;;5064328;28;20049;-82
2022/03/11 10:07:28;;;;;;;11.10;6.53;;;8.90;44.90;;;;;;5064691;28;20021;-81
2022/03/11 10:09:56;;;;;;;11.45;6.85;;;8.90;44.00;;;;;;5067870;28;20092;-84
2022/03/11 10:12:29;;;;;;;9.85;6.95;;;8.80;43.70;;;;;;5069732;28;20024;-85
2022/03/11 10:15:01;;;;;;;12.20;6.60;;;8.50;44.70;;;;;;5066043;28;20044;-80
2022/03/11 10:17:35;;;;;;;11.40;6.63;;;8.50;45.30;;;;;;5062962;28;20058;-81
2022/03/11 10:20:07;;;;;;;13.55;7.05;;;8.80;45.80;;;;;;5061352;28;20025;-81
2022/03/11 10:22:33;;;;;;;10.82;7.00;;;9.10;44.10;;;;;;5059768;28;20024;-81
2022/03/11 10:25:21;;;;;;;12.93;7.47;;;9.10;43.90;;;;;;5061133;28;20036;-82
2022/03/11 10:28:17;;;;;;;11.73;7.15;;;9.10;44.20;;;;;;5062616;28;20025;-82
2022/03/11 10:30:44;;;;;;;10.27;5.90;;;9.10;43.90;;;;;;5061107;28;20025;-81
2022/03/11 10:33:14;;;;;;;10.38;6.63;;;9.10;44.30;;;;;;5060718;28;20017;-82
2022/03/11 10:35:47;;;;;;;10.50;6.68;;;9.50;44.10;;;;;;5064788;28;20017;-84
2022/03/11 10:38:19;;;;;;;11.27;7.13;;;9.80;43.40;;;;;;5067011;28;20021;-81
2022/03/11 10:40:58;;;;;;;16.15;8.18;;;9.90;42.80;;;;;;5064928;28;20033;-81
2022/03/11 10:43:28;;;;;;;10.13;6.68;;;10.00;42.60;;;;;;5060937;28;20040;-81
2022/03/11 10:46:03;;;;;;;13.45;7.55;;;10.00;42.60;;;;;;5058747;28;20094;-81
2022/03/11 10:48:48;;;;;;;20.05;7.47;;;10.00;41.50;;;;;;5058172;28;20025;-82
2022/03/11 10:51:24;;;;;;;17.38;8.25;;;9.70;41.90;;;;;;5059227;28;20041;-81
2022/03/11 10:53:50;;;;;;;13.23;7.97;;;9.50;42.90;;;;;;5057700;28;20025;-81
2022/03/11 10:56:29;;;;;;;14.13;8.93;;;9.40;43.40;;;;;;5058301;28;20017;-82
2022/03/11 10:58:56;;;;;;;13.07;8.00;;;9.40;43.40;;;;;;5057600;28;20028;-85
2022/03/11 11:01:41;;;;;;;13.88;8.02;;;9.30;43.20;;;;;;5060185;28;20029;-81
2022/03/11 11:04:08;;;;;;;13.40;8.30;;;9.20;43.70;;;;;;5059603;28;20179;-81
2022/03/11 11:06:38;;;;;;;15.32;7.68;;;9.40;44.00;;;;;;5057178;28;20035;-81
2022/03/11 11:09:05;;;;;;;15.45;8.07;;;9.50;43.50;;;;;;5059097;28;20579;-82
2022/03/11 11:11:32;;;;;;;14.82;8.77;;;9.60;43.90;;;;;;5060953;28;20416;-82
2022/03/11 11:14:07;;;;;;;11.57;7.45;;;9.70;43.10;;;;;;5063885;28;20021;-84
2022/03/11 11:16:50;;;;;;;14.57;7.75;;;9.70;43.20;;;;;;5061383;28;20104;-82
2022/03/11 11:19:17;;;;;;;;;;;10.00;43.40;;;;;;5061271;28;20017;-81
2022/03/11 11:22:02;;;;;;;15.57;8.93;;;10.20;42.50;;;;;;5059376;28;19989;-81
2022/03/11 11:24:40;;;;;;;13.80;8.32;;;10.10;42.20;;;;;;5059507;28;20027;-85
2022/03/11 11:27:06;;;;;;;13.13;8.75;;;10.00;42.40;;;;;;5060321;28;20449;-83
2022/03/11 11:29:33;;;;;;;16.10;7.57;;;10.10;42.60;;;;;;5062083;28;20079;-80
2022/03/11 11:32:03;;;;;;;13.38;8.18;;;10.10;42.70;;;;;;5059805;28;20094;-82
2022/03/11 11:34:33;;;;;;;14.70;8.18;;;10.10;42.00;;;;;;5060335;28;20048;-81
2022/03/11 11:37:00;;;;;;;12.68;8.52;;;9.90;42.60;;;;;;5057774;28;20112;-79
2022/03/11 11:39:34;;;;;;;14.02;9.05;;;9.90;42.40;;;;;;5167590;23;20045;-83
2022/03/11 11:42:05;;;;;;;13.70;8.50;;;9.90;42.70;;;;;;5060708;28;20033;-80
2022/03/11 11:44:56;;;;;;;14.60;8.07;;;10.00;43.00;;;;;;5069059;28;20025;-81
2022/03/11 11:47:25;;;;;;;12.57;8.15;;;10.30;42.90;;;;;;5063921;28;20523;-83
2022/03/11 11:49:52;;;;;;;16.05;8.20;;;10.50;42.50;;;;;;5058101;28;20029;-80
2022/03/11 11:52:39;;;;;;;11.98;8.25;;;10.70;41.40;;;;;;5058411;28;20116;-83
2022/03/11 11:55:19;;;;;;;12.15;7.97;;;10.60;41.80;;;;;;5056776;28;20025;-81
2022/03/11 11:57:46;;;;;;;9.63;6.43;;;10.60;42.10;;;;;;5058759;28;20028;-81
2022/03/11 12:00:27;;;;;;;15.45;8.95;;;10.70;42.10;;;;;;5061815;28;20017;-82
2022/03/11 12:02:53;;;;;;;16.83;8.98;;;10.80;41.40;;;;;;5058767;28;20025;-80
2022/03/11 12:05:45;;;;;;;12.18;8.50;;;10.70;40.90;;;;;;5061574;28;20361;-82
2022/03/11 12:08:34;;;;;;;13.27;8.63;;;10.60;41.50;;;;;;5057680;28;20036;-79
2022/03/11 12:11:00;;;;;;;12.75;8.65;;;10.70;41.50;;;;;;5057451;28;20028;-78
2022/03/11 12:13:37;;;;;;;12.60;8.43;;;10.60;41.40;;;;;;5056996;28;20084;-81
2022/03/11 12:16:21;;;;;;;15.13;8.85;;;10.70;41.40;;;;;;5058914;28;20078;-80
2022/03/11 12:18:47;;;;;;;12.20;7.95;;;10.90;41.30;;;;;;5058564;28;20086;-82
2022/03/11 12:21:37;;;;;;;16.95;9.18;;;11.20;41.10;;;;;;5059034;28;20098;-81
2022/03/11 12:24:32;;;;;;;13.05;8.27;;;11.30;40.50;;;;;;5056211;28;20029;-80
2022/03/11 12:26:58;;;;;;;11.35;8.48;;;11.30;40.50;;;;;;5057987;28;20025;-80
2022/03/11 12:29:44;;;;;;;13.10;8.43;;;11.30;40.60;;;;;;5056480;28;20036;-79
2022/03/11 12:32:13;;;;;;;19.20;8.45;;;11.50;40.10;;;;;;5058765;28;20029;-79
2022/03/11 12:34:41;;;;;;;18.88;9.75;;;11.50;39.70;;;;;;5058328;28;20109;-80
2022/03/11 12:37:13;;;;;;;14.55;9.20;;;11.40;39.80;;;;;;5057401;28;20475;-81
2022/03/11 12:39:39;;;;;;;;;;;11.20;40.00;;;;;;5048879;28;20063;-78
2022/03/11 12:42:05;;;;;;;13.57;8.50;;;11.00;40.10;;;;;;5065213;28;19986;-82
2022/03/11 12:44:45;;;;;;;16.67;9.27;;;11.00;40.90;;;;;;5062800;28;20060;-80
2022/03/11 12:47:18;;;;;;;17.55;9.32;;;11.10;40.90;;;;;;5060584;28;20037;-82
2022/03/11 12:49:43;;;;;;;19.48;9.52;;;11.20;40.20;;;;;;5053234;28;20036;-79
2022/03/11 12:52:20;;;;;;;15.35;9.35;;;11.20;40.10;;;;;;5057415;28;20033;-79